sensor_id;sensor_type;location;lat;lon;timestamp;P1;durP1;ratioP1;P2;durP2;ratioP2
73575;SDS011;61859;49.204;8.140;2023-10-19T00:02:13;12.07;;;9.47;;
73575;SDS011;61859;49.204;8.140;2023-10-19T00:04:40;12.87;;;9.73;;
73575;SDS011;61859;49.204;8.140;2023-10-19T00:07:06;12.87;;;9.83;;
73575;SDS011;61859;49.204;8.140;2023-10-19T00:09:33;13.97;;;10.60;;
73575;SDS011;61859;49.204;8.140;2023-10-19T00:12:05;13.97;;;10.03;;
73575;SDS011;61859;49.204;8.140;2023-10-19T00:14:34;13.30;;;10.23;;
73575;SDS011;61859;49.204;8.140;2023-10-19T00:17:00;12.20;;;9.87;;
73575;SDS011;61859;49.204;8.140;2023-10-19T00:19:30;14.13;;;10.27;;
73575;SDS011;61859;49.204;8.140;2023-10-19T00:22:02;14.70;;;10.97;;
73575;SDS011;61859;49.204;8.140;2023-10-19T00:24:33;15.37;;;9.40;;
73575;SDS011;61859;49.204;8.140;2023-10-19T00:27:00;14.43;;;10.03;;
73575;SDS011;61859;49.204;8.140;2023-10-19T00:29:31;16.00;;;11.07;;
73575;SDS011;61859;49.204;8.140;2023-10-19T00:31:58;14.23;;;10.20;;
73575;SDS011;61859;49.204;8.140;2023-10-19T00:34:26;12.33;;;9.73;;
73575;SDS011;61859;49.204;8.140;2023-10-19T00:36:54;14.63;;;10.20;;
73575;SDS011;61859;49.204;8.140;2023-10-19T00:39:21;15.27;;;10.20;;
73575;SDS011;61859;49.204;8.140;2023-10-19T00:41:48;13.97;;;10.00;;
73575;SDS011;61859;49.204;8.140;2023-10-19T00:44:13;12.50;;;9.90;;
73575;SDS011;61859;49.204;8.140;2023-10-19T00:46:48;13.57;;;9.83;;
73575;SDS011;61859;49.204;8.140;2023-10-19T00:49:27;13.80;;;10.10;;
73575;SDS011;61859;49.204;8.140;2023-10-19T00:51:54;15.23;;;10.13;;
73575;SDS011;61859;49.204;8.140;2023-10-19T00:54:35;12.57;;;9.33;;
73575;SDS011;61859;49.204;8.140;2023-10-19T00:57:04;14.03;;;10.07;;
73575;SDS011;61859;49.204;8.140;2023-10-19T00:59:32;11.97;;;9.40;;
73575;SDS011;61859;49.204;8.140;2023-10-19T01:02:04;12.90;;;10.10;;
73575;SDS011;61859;49.204;8.140;2023-10-19T01:04:51;15.87;;;10.33;;
73575;SDS011;61859;49.204;8.140;2023-10-19T01:07:33;12.63;;;9.03;;
73575;SDS011;61859;49.204;8.140;2023-10-19T01:10:03;11.97;;;9.40;;
73575;SDS011;61859;49.204;8.140;2023-10-19T01:12:30;13.90;;;9.87;;
73575;SDS011;61859;49.204;8.140;2023-10-19T01:17:39;12.23;;;9.60;;
73575;SDS011;61859;49.204;8.140;2023-10-19T01:20:09;15.17;;;10.10;;
73575;SDS011;61859;49.204;8.140;2023-10-19T01:22:59;11.90;;;9.57;;
73575;SDS011;61859;49.204;8.140;2023-10-19T01:31:08;10.80;;;8.93;;
73575;SDS011;61859;49.204;8.140;2023-10-19T01:33:33;12.17;;;9.17;;
73575;SDS011;61859;49.204;8.140;2023-10-19T01:36:00;12.77;;;9.63;;
73575;SDS011;61859;49.204;8.140;2023-10-19T01:38:39;11.67;;;8.87;;
73575;SDS011;61859;49.204;8.140;2023-10-19T01:41:06;12.43;;;9.10;;
73575;SDS011;61859;49.204;8.140;2023-10-19T01:43:39;15.00;;;9.43;;
73575;SDS011;61859;49.204;8.140;2023-10-19T01:46:09;14.37;;;9.60;;
73575;SDS011;61859;49.204;8.140;2023-10-19T01:48:42;12.43;;;9.17;;
73575;SDS011;61859;49.204;8.140;2023-10-19T01:51:09;11.13;;;9.10;;
73575;SDS011;61859;49.204;8.140;2023-10-19T01:53:39;10.50;;;8.40;;
73575;SDS011;61859;49.204;8.140;2023-10-19T01:56:08;14.10;;;9.63;;
73575;SDS011;61859;49.204;8.140;2023-10-19T01:58:37;12.13;;;9.00;;
73575;SDS011;61859;49.204;8.140;2023-10-19T02:01:04;13.93;;;9.37;;
73575;SDS011;61859;49.204;8.140;2023-10-19T02:03:39;12.67;;;8.83;;
73575;SDS011;61859;49.204;8.140;2023-10-19T02:06:09;12.00;;;9.17;;
73575;SDS011;61859;49.204;8.140;2023-10-19T02:11:23;12.27;;;9.33;;
73575;SDS011;61859;49.204;8.140;2023-10-19T02:13:51;10.60;;;8.43;;
73575;SDS011;61859;49.204;8.140;2023-10-19T02:16:24;12.13;;;9.50;;
73575;SDS011;61859;49.204;8.140;2023-10-19T02:18:51;12.23;;;9.97;;
73575;SDS011;61859;49.204;8.140;2023-10-19T02:21:17;11.33;;;8.70;;
73575;SDS011;61859;49.204;8.140;2023-10-19T02:23:55;16.07;;;9.70;;
73575;SDS011;61859;49.204;8.140;2023-10-19T02:26:22;10.57;;;9.03;;
73575;SDS011;61859;49.204;8.140;2023-10-19T02:28:50;10.93;;;8.83;;
73575;SDS011;61859;49.204;8.140;2023-10-19T02:31:16;11.03;;;8.63;;
73575;SDS011;61859;49.204;8.140;2023-10-19T02:33:50;10.83;;;9.00;;
73575;SDS011;61859;49.204;8.140;2023-10-19T02:36:17;10.43;;;8.07;;
73575;SDS011;61859;49.204;8.140;2023-10-19T02:38:45;12.60;;;9.07;;
73575;SDS011;61859;49.204;8.140;2023-10-19T02:41:17;10.93;;;8.77;;
73575;SDS011;61859;49.204;8.140;2023-10-19T02:43:44;12.30;;;8.20;;
73575;SDS011;61859;49.204;8.140;2023-10-19T02:46:26;10.37;;;9.17;;
73575;SDS011;61859;49.204;8.140;2023-10-19T02:48:52;11.43;;;8.77;;
73575;SDS011;61859;49.204;8.140;2023-10-19T02:51:17;10.33;;;7.87;;
73575;SDS011;61859;49.204;8.140;2023-10-19T02:53:44;10.70;;;7.17;;
73575;SDS011;61859;49.204;8.140;2023-10-19T02:56:13;8.00;;;6.50;;
73575;SDS011;61859;49.204;8.140;2023-10-19T02:58:44;10.37;;;7.07;;
73575;SDS011;61859;49.204;8.140;2023-10-19T03:01:17;7.07;;;6.37;;
73575;SDS011;61859;49.204;8.140;2023-10-19T03:03:47;9.53;;;6.90;;
73575;SDS011;61859;49.204;8.140;2023-10-19T03:06:18;9.47;;;6.87;;
73575;SDS011;61859;49.204;8.140;2023-10-19T03:08:45;8.53;;;6.57;;
73575;SDS011;61859;49.204;8.140;2023-10-19T03:11:12;9.07;;;7.00;;
73575;SDS011;61859;49.204;8.140;2023-10-19T03:13:39;7.93;;;6.70;;
73575;SDS011;61859;49.204;8.140;2023-10-19T03:16:06;9.97;;;6.73;;
73575;SDS011;61859;49.204;8.140;2023-10-19T03:18:37;14.70;;;7.13;;
73575;SDS011;61859;49.204;8.140;2023-10-19T03:21:03;9.13;;;6.97;;
73575;SDS011;61859;49.204;8.140;2023-10-19T03:23:29;7.30;;;5.97;;
73575;SDS011;61859;49.204;8.140;2023-10-19T03:25:59;10.30;;;6.43;;
73575;SDS011;61859;49.204;8.140;2023-10-19T03:28:47;7.97;;;6.53;;
73575;SDS011;61859;49.204;8.140;2023-10-19T03:31:13;10.30;;;6.80;;
73575;SDS011;61859;49.204;8.140;2023-10-19T03:33:45;9.70;;;6.47;;
73575;SDS011;61859;49.204;8.140;2023-10-19T03:36:14;8.67;;;6.97;;
73575;SDS011;61859;49.204;8.140;2023-10-19T03:38:40;10.27;;;7.90;;
73575;SDS011;61859;49.204;8.140;2023-10-19T03:41:06;9.53;;;7.33;;
73575;SDS011;61859;49.204;8.140;2023-10-19T03:43:34;11.53;;;7.23;;
73575;SDS011;61859;49.204;8.140;2023-10-19T03:46:01;9.33;;;7.53;;
73575;SDS011;61859;49.204;8.140;2023-10-19T03:48:31;10.20;;;7.33;;
73575;SDS011;61859;49.204;8.140;2023-10-19T03:51:03;11.90;;;7.73;;
73575;SDS011;61859;49.204;8.140;2023-10-19T03:53:29;10.60;;;7.47;;
73575;SDS011;61859;49.204;8.140;2023-10-19T03:55:58;11.87;;;8.57;;
73575;SDS011;61859;49.204;8.140;2023-10-19T03:58:24;9.17;;;7.30;;
73575;SDS011;61859;49.204;8.140;2023-10-19T04:00:49;11.03;;;8.47;;
73575;SDS011;61859;49.204;8.140;2023-10-19T04:03:16;10.47;;;7.97;;
73575;SDS011;61859;49.204;8.140;2023-10-19T04:05:49;9.37;;;7.97;;
73575;SDS011;61859;49.204;8.140;2023-10-19T04:08:16;10.83;;;8.37;;
73575;SDS011;61859;49.204;8.140;2023-10-19T04:10:46;11.90;;;7.57;;
73575;SDS011;61859;49.204;8.140;2023-10-19T04:13:31;10.07;;;7.67;;
73575;SDS011;61859;49.204;8.140;2023-10-19T04:15:57;10.93;;;8.77;;
73575;SDS011;61859;49.204;8.140;2023-10-19T04:18:23;15.43;;;8.60;;
73575;SDS011;61859;49.204;8.140;2023-10-19T04:20:50;11.70;;;8.10;;
73575;SDS011;61859;49.204;8.140;2023-10-19T04:23:19;11.37;;;8.10;;
73575;SDS011;61859;49.204;8.140;2023-10-19T04:25:52;10.43;;;7.43;;
73575;SDS011;61859;49.204;8.140;2023-10-19T04:28:21;9.63;;;8.03;;
73575;SDS011;61859;49.204;8.140;2023-10-19T04:30:55;10.53;;;8.23;;
73575;SDS011;61859;49.204;8.140;2023-10-19T04:33:27;13.17;;;7.50;;
73575;SDS011;61859;49.204;8.140;2023-10-19T04:35:54;11.27;;;8.17;;
73575;SDS011;61859;49.204;8.140;2023-10-19T04:38:21;10.10;;;8.10;;
73575;SDS011;61859;49.204;8.140;2023-10-19T04:40:47;11.27;;;8.47;;
73575;SDS011;61859;49.204;8.140;2023-10-19T04:43:13;12.63;;;8.57;;
73575;SDS011;61859;49.204;8.140;2023-10-19T04:45:39;8.87;;;7.70;;
73575;SDS011;61859;49.204;8.140;2023-10-19T04:48:05;10.23;;;8.03;;
73575;SDS011;61859;49.204;8.140;2023-10-19T04:50:31;11.07;;;8.20;;
73575;SDS011;61859;49.204;8.140;2023-10-19T04:52:56;10.40;;;8.43;;
73575;SDS011;61859;49.204;8.140;2023-10-19T04:55:22;12.87;;;8.97;;
73575;SDS011;61859;49.204;8.140;2023-10-19T04:57:48;13.37;;;7.80;;
73575;SDS011;61859;49.204;8.140;2023-10-19T05:00:14;10.60;;;8.13;;
73575;SDS011;61859;49.204;8.140;2023-10-19T05:02:40;10.70;;;7.80;;
73575;SDS011;61859;49.204;8.140;2023-10-19T05:05:06;12.07;;;8.03;;
73575;SDS011;61859;49.204;8.140;2023-10-19T05:07:32;12.93;;;8.17;;
73575;SDS011;61859;49.204;8.140;2023-10-19T05:09:58;10.10;;;8.23;;
73575;SDS011;61859;49.204;8.140;2023-10-19T05:12:24;13.87;;;8.80;;
73575;SDS011;61859;49.204;8.140;2023-10-19T05:14:49;10.27;;;8.00;;
73575;SDS011;61859;49.204;8.140;2023-10-19T05:17:15;11.27;;;8.63;;
73575;SDS011;61859;49.204;8.140;2023-10-19T05:19:41;10.67;;;7.73;;
73575;SDS011;61859;49.204;8.140;2023-10-19T05:22:07;11.43;;;8.33;;
73575;SDS011;61859;49.204;8.140;2023-10-19T05:24:34;11.57;;;9.33;;
73575;SDS011;61859;49.204;8.140;2023-10-19T05:27:00;12.67;;;9.73;;
73575;SDS011;61859;49.204;8.140;2023-10-19T05:29:26;14.17;;;8.77;;
73575;SDS011;61859;49.204;8.140;2023-10-19T05:31:52;12.90;;;9.40;;
73575;SDS011;61859;49.204;8.140;2023-10-19T05:34:21;12.33;;;8.60;;
73575;SDS011;61859;49.204;8.140;2023-10-19T05:36:47;13.00;;;9.67;;
73575;SDS011;61859;49.204;8.140;2023-10-19T05:39:16;13.35;;;9.55;;
73575;SDS011;61859;49.204;8.140;2023-10-19T05:41:43;13.40;;;9.53;;
73575;SDS011;61859;49.204;8.140;2023-10-19T05:44:10;10.80;;;8.60;;
73575;SDS011;61859;49.204;8.140;2023-10-19T05:46:35;15.83;;;8.93;;
73575;SDS011;61859;49.204;8.140;2023-10-19T05:49:02;10.77;;;8.77;;
73575;SDS011;61859;49.204;8.140;2023-10-19T05:51:29;11.23;;;8.50;;
73575;SDS011;61859;49.204;8.140;2023-10-19T05:53:55;11.97;;;8.33;;
73575;SDS011;61859;49.204;8.140;2023-10-19T05:56:26;12.33;;;8.63;;
73575;SDS011;61859;49.204;8.140;2023-10-19T05:58:52;11.90;;;9.50;;
73575;SDS011;61859;49.204;8.140;2023-10-19T06:01:19;12.77;;;8.70;;
73575;SDS011;61859;49.204;8.140;2023-10-19T06:03:45;9.97;;;8.37;;
73575;SDS011;61859;49.204;8.140;2023-10-19T06:06:10;11.57;;;8.87;;
73575;SDS011;61859;49.204;8.140;2023-10-19T06:08:36;13.80;;;8.70;;
73575;SDS011;61859;49.204;8.140;2023-10-19T06:11:01;10.53;;;8.60;;
73575;SDS011;61859;49.204;8.140;2023-10-19T06:13:27;12.03;;;8.70;;
73575;SDS011;61859;49.204;8.140;2023-10-19T06:15:54;12.70;;;8.83;;
73575;SDS011;61859;49.204;8.140;2023-10-19T06:18:20;12.03;;;8.90;;
73575;SDS011;61859;49.204;8.140;2023-10-19T06:20:46;12.27;;;8.80;;
73575;SDS011;61859;49.204;8.140;2023-10-19T06:23:13;12.57;;;9.17;;
73575;SDS011;61859;49.204;8.140;2023-10-19T06:25:38;14.20;;;9.07;;
73575;SDS011;61859;49.204;8.140;2023-10-19T06:28:04;16.60;;;8.97;;
73575;SDS011;61859;49.204;8.140;2023-10-19T06:30:32;12.37;;;8.90;;
73575;SDS011;61859;49.204;8.140;2023-10-19T06:32:58;13.57;;;9.03;;
73575;SDS011;61859;49.204;8.140;2023-10-19T06:35:28;13.77;;;9.50;;
73575;SDS011;61859;49.204;8.140;2023-10-19T06:37:56;12.37;;;9.47;;
73575;SDS011;61859;49.204;8.140;2023-10-19T06:40:24;9.90;;;8.57;;
73575;SDS011;61859;49.204;8.140;2023-10-19T06:42:51;11.07;;;9.27;;
73575;SDS011;61859;49.204;8.140;2023-10-19T06:45:21;13.13;;;9.10;;
73575;SDS011;61859;49.204;8.140;2023-10-19T06:47:47;11.20;;;9.07;;
73575;SDS011;61859;49.204;8.140;2023-10-19T06:50:15;12.07;;;9.47;;
73575;SDS011;61859;49.204;8.140;2023-10-19T06:52:42;13.47;;;8.67;;
73575;SDS011;61859;49.204;8.140;2023-10-19T06:55:09;12.90;;;8.80;;
73575;SDS011;61859;49.204;8.140;2023-10-19T07:00:31;10.80;;;8.30;;
73575;SDS011;61859;49.204;8.140;2023-10-19T07:02:58;11.60;;;8.73;;
73575;SDS011;61859;49.204;8.140;2023-10-19T07:05:28;11.73;;;8.60;;
73575;SDS011;61859;49.204;8.140;2023-10-19T07:07:57;11.27;;;8.33;;
73575;SDS011;61859;49.204;8.140;2023-10-19T07:10:24;10.23;;;8.50;;
73575;SDS011;61859;49.204;8.140;2023-10-19T07:12:52;10.70;;;8.07;;
73575;SDS011;61859;49.204;8.140;2023-10-19T07:15:19;12.60;;;8.33;;
73575;SDS011;61859;49.204;8.140;2023-10-19T07:17:47;12.70;;;8.00;;
73575;SDS011;61859;49.204;8.140;2023-10-19T07:20:14;8.60;;;7.63;;
73575;SDS011;61859;49.204;8.140;2023-10-19T07:22:55;9.27;;;7.97;;
73575;SDS011;61859;49.204;8.140;2023-10-19T07:25:22;9.77;;;8.07;;
73575;SDS011;61859;49.204;8.140;2023-10-19T07:27:50;9.73;;;7.40;;
73575;SDS011;61859;49.204;8.140;2023-10-19T07:30:19;10.33;;;7.67;;
73575;SDS011;61859;49.204;8.140;2023-10-19T07:32:47;9.83;;;7.93;;
73575;SDS011;61859;49.204;8.140;2023-10-19T07:35:23;10.20;;;8.07;;
73575;SDS011;61859;49.204;8.140;2023-10-19T07:37:52;8.20;;;7.27;;
73575;SDS011;61859;49.204;8.140;2023-10-19T07:40:19;9.93;;;8.40;;
73575;SDS011;61859;49.204;8.140;2023-10-19T07:42:45;11.77;;;8.20;;
73575;SDS011;61859;49.204;8.140;2023-10-19T07:45:13;9.07;;;7.97;;
73575;SDS011;61859;49.204;8.140;2023-10-19T07:47:40;8.87;;;7.40;;
73575;SDS011;61859;49.204;8.140;2023-10-19T07:50:09;11.83;;;7.93;;
73575;SDS011;61859;49.204;8.140;2023-10-19T07:52:51;9.73;;;7.40;;
73575;SDS011;61859;49.204;8.140;2023-10-19T07:55:18;8.47;;;7.20;;
73575;SDS011;61859;49.204;8.140;2023-10-19T07:57:45;11.50;;;8.23;;
73575;SDS011;61859;49.204;8.140;2023-10-19T08:00:15;12.77;;;8.30;;
73575;SDS011;61859;49.204;8.140;2023-10-19T08:02:42;10.27;;;8.30;;
73575;SDS011;61859;49.204;8.140;2023-10-19T08:05:11;8.93;;;8.03;;
73575;SDS011;61859;49.204;8.140;2023-10-19T08:07:37;9.43;;;8.00;;
73575;SDS011;61859;49.204;8.140;2023-10-19T08:10:12;11.20;;;8.53;;
73575;SDS011;61859;49.204;8.140;2023-10-19T08:12:39;10.97;;;7.63;;
73575;SDS011;61859;49.204;8.140;2023-10-19T08:15:11;10.40;;;7.50;;
73575;SDS011;61859;49.204;8.140;2023-10-19T08:17:39;8.97;;;7.40;;
73575;SDS011;61859;49.204;8.140;2023-10-19T08:20:06;11.37;;;8.10;;
73575;SDS011;61859;49.204;8.140;2023-10-19T08:22:41;11.20;;;7.27;;
73575;SDS011;61859;49.204;8.140;2023-10-19T08:25:11;8.63;;;6.97;;
73575;SDS011;61859;49.204;8.140;2023-10-19T08:27:40;9.73;;;7.57;;
73575;SDS011;61859;49.204;8.140;2023-10-19T08:30:09;9.67;;;8.40;;
73575;SDS011;61859;49.204;8.140;2023-10-19T08:32:38;10.40;;;8.03;;
73575;SDS011;61859;49.204;8.140;2023-10-19T08:35:07;12.10;;;7.37;;
73575;SDS011;61859;49.204;8.140;2023-10-19T08:37:36;10.07;;;8.27;;
73575;SDS011;61859;49.204;8.140;2023-10-19T08:40:04;10.37;;;8.60;;
73575;SDS011;61859;49.204;8.140;2023-10-19T08:42:31;12.83;;;9.47;;
73575;SDS011;61859;49.204;8.140;2023-10-19T08:44:57;11.20;;;8.93;;
73575;SDS011;61859;49.204;8.140;2023-10-19T08:47:24;12.57;;;8.53;;
73575;SDS011;61859;49.204;8.140;2023-10-19T08:49:51;13.70;;;9.40;;
73575;SDS011;61859;49.204;8.140;2023-10-19T08:52:18;10.97;;;8.93;;
73575;SDS011;61859;49.204;8.140;2023-10-19T08:54:47;10.10;;;9.07;;
73575;SDS011;61859;49.204;8.140;2023-10-19T08:57:13;10.67;;;8.70;;
73575;SDS011;61859;49.204;8.140;2023-10-19T08:59:39;10.13;;;7.67;;
73575;SDS011;61859;49.204;8.140;2023-10-19T09:02:05;9.03;;;8.13;;
73575;SDS011;61859;49.204;8.140;2023-10-19T09:04:32;10.63;;;8.30;;
73575;SDS011;61859;49.204;8.140;2023-10-19T09:07:05;8.00;;;7.20;;
73575;SDS011;61859;49.204;8.140;2023-10-19T09:09:35;10.63;;;8.37;;
73575;SDS011;61859;49.204;8.140;2023-10-19T09:12:05;9.03;;;7.40;;
73575;SDS011;61859;49.204;8.140;2023-10-19T09:14:33;8.07;;;7.27;;
73575;SDS011;61859;49.204;8.140;2023-10-19T09:17:01;9.83;;;8.33;;
73575;SDS011;61859;49.204;8.140;2023-10-19T09:19:41;14.77;;;7.97;;
73575;SDS011;61859;49.204;8.140;2023-10-19T09:22:09;9.73;;;7.40;;
73575;SDS011;61859;49.204;8.140;2023-10-19T09:24:48;10.77;;;8.13;;
73575;SDS011;61859;49.204;8.140;2023-10-19T09:27:16;8.37;;;7.50;;
73575;SDS011;61859;49.204;8.140;2023-10-19T09:29:42;8.47;;;6.93;;
73575;SDS011;61859;49.204;8.140;2023-10-19T09:32:08;8.53;;;7.33;;
73575;SDS011;61859;49.204;8.140;2023-10-19T09:34:35;9.70;;;7.57;;
73575;SDS011;61859;49.204;8.140;2023-10-19T09:37:01;8.87;;;6.70;;
73575;SDS011;61859;49.204;8.140;2023-10-19T09:39:29;7.10;;;6.33;;
73575;SDS011;61859;49.204;8.140;2023-10-19T09:42:07;10.43;;;7.13;;
73575;SDS011;61859;49.204;8.140;2023-10-19T09:44:44;12.50;;;7.30;;
73575;SDS011;61859;49.204;8.140;2023-10-19T09:47:15;9.00;;;6.97;;
73575;SDS011;61859;49.204;8.140;2023-10-19T09:49:51;8.67;;;7.63;;
73575;SDS011;61859;49.204;8.140;2023-10-19T09:52:16;10.63;;;7.47;;
73575;SDS011;61859;49.204;8.140;2023-10-19T10:00:35;8.57;;;7.67;;
73575;SDS011;61859;49.204;8.140;2023-10-19T10:03:01;10.67;;;7.80;;
73575;SDS011;61859;49.204;8.140;2023-10-19T10:10:43;12.20;;;8.20;;
73575;SDS011;61859;49.204;8.140;2023-10-19T10:15:55;8.83;;;7.53;;
73575;SDS011;61859;49.204;8.140;2023-10-19T10:18:32;10.10;;;8.20;;
73575;SDS011;61859;49.204;8.140;2023-10-19T10:23:51;8.67;;;7.87;;
73575;SDS011;61859;49.204;8.140;2023-10-19T10:26:29;9.33;;;7.77;;
73575;SDS011;61859;49.204;8.140;2023-10-19T10:29:12;10.53;;;8.53;;
73575;SDS011;61859;49.204;8.140;2023-10-19T10:31:43;10.10;;;7.50;;
73575;SDS011;61859;49.204;8.140;2023-10-19T10:34:09;10.17;;;8.60;;
73575;SDS011;61859;49.204;8.140;2023-10-19T10:39:30;10.67;;;8.13;;
73575;SDS011;61859;49.204;8.140;2023-10-19T10:41:57;10.50;;;8.10;;
73575;SDS011;61859;49.204;8.140;2023-10-19T10:47:08;16.03;;;8.70;;
73575;SDS011;61859;49.204;8.140;2023-10-19T10:49:35;9.47;;;7.73;;
73575;SDS011;61859;49.204;8.140;2023-10-19T10:52:23;11.50;;;7.80;;
73575;SDS011;61859;49.204;8.140;2023-10-19T10:54:49;9.73;;;8.10;;
73575;SDS011;61859;49.204;8.140;2023-10-19T10:57:14;9.13;;;7.83;;
73575;SDS011;61859;49.204;8.140;2023-10-19T10:59:41;11.13;;;8.80;;
73575;SDS011;61859;49.204;8.140;2023-10-19T11:02:19;11.53;;;8.87;;
73575;SDS011;61859;49.204;8.140;2023-10-19T11:04:46;11.80;;;8.40;;
73575;SDS011;61859;49.204;8.140;2023-10-19T11:07:19;11.53;;;8.40;;
73575;SDS011;61859;49.204;8.140;2023-10-19T11:09:47;9.10;;;7.90;;
73575;SDS011;61859;49.204;8.140;2023-10-19T11:12:14;10.70;;;8.80;;
73575;SDS011;61859;49.204;8.140;2023-10-19T11:14:55;10.77;;;8.93;;
73575;SDS011;61859;49.204;8.140;2023-10-19T11:17:24;9.03;;;8.00;;
73575;SDS011;61859;49.204;8.140;2023-10-19T11:19:56;9.60;;;7.87;;
73575;SDS011;61859;49.204;8.140;2023-10-19T11:22:22;9.67;;;8.60;;
73575;SDS011;61859;49.204;8.140;2023-10-19T11:24:54;9.53;;;8.53;;
73575;SDS011;61859;49.204;8.140;2023-10-19T11:27:27;9.83;;;8.33;;
73575;SDS011;61859;49.204;8.140;2023-10-19T11:29:57;10.53;;;8.97;;
73575;SDS011;61859;49.204;8.140;2023-10-19T11:32:23;10.30;;;8.93;;
73575;SDS011;61859;49.204;8.140;2023-10-19T11:34:51;14.23;;;9.53;;
73575;SDS011;61859;49.204;8.140;2023-10-19T11:37:17;10.37;;;8.50;;
73575;SDS011;61859;49.204;8.140;2023-10-19T11:39:43;11.20;;;9.77;;
73575;SDS011;61859;49.204;8.140;2023-10-19T11:42:08;11.63;;;9.27;;
73575;SDS011;61859;49.204;8.140;2023-10-19T11:44:35;14.03;;;10.67;;
73575;SDS011;61859;49.204;8.140;2023-10-19T11:47:01;14.33;;;9.20;;
73575;SDS011;61859;49.204;8.140;2023-10-19T11:49:28;12.37;;;9.87;;
73575;SDS011;61859;49.204;8.140;2023-10-19T11:51:54;12.40;;;10.33;;
73575;SDS011;61859;49.204;8.140;2023-10-19T11:54:19;13.73;;;9.37;;
73575;SDS011;61859;49.204;8.140;2023-10-19T11:56:45;18.03;;;14.47;;
73575;SDS011;61859;49.204;8.140;2023-10-19T11:59:11;15.37;;;12.40;;
73575;SDS011;61859;49.204;8.140;2023-10-19T12:01:37;11.73;;;9.57;;
73575;SDS011;61859;49.204;8.140;2023-10-19T12:04:03;13.27;;;11.17;;
73575;SDS011;61859;49.204;8.140;2023-10-19T12:06:30;10.93;;;9.23;;
73575;SDS011;61859;49.204;8.140;2023-10-19T12:08:56;11.07;;;8.47;;
73575;SDS011;61859;49.204;8.140;2023-10-19T12:11:24;8.80;;;7.90;;
73575;SDS011;61859;49.204;8.140;2023-10-19T12:13:50;9.93;;;7.57;;
73575;SDS011;61859;49.204;8.140;2023-10-19T12:16:16;10.87;;;7.67;;
73575;SDS011;61859;49.204;8.140;2023-10-19T12:18:45;11.20;;;9.03;;
73575;SDS011;61859;49.204;8.140;2023-10-19T12:21:11;11.83;;;9.50;;
73575;SDS011;61859;49.204;8.140;2023-10-19T12:23:40;9.27;;;8.20;;
73575;SDS011;61859;49.204;8.140;2023-10-19T12:26:08;10.53;;;7.87;;
73575;SDS011;61859;49.204;8.140;2023-10-19T12:28:40;9.73;;;7.03;;
73575;SDS011;61859;49.204;8.140;2023-10-19T12:31:06;8.20;;;6.70;;
73575;SDS011;61859;49.204;8.140;2023-10-19T12:33:36;8.93;;;6.60;;
73575;SDS011;61859;49.204;8.140;2023-10-19T12:36:03;8.50;;;7.00;;
73575;SDS011;61859;49.204;8.140;2023-10-19T12:38:49;8.30;;;6.50;;
73575;SDS011;61859;49.204;8.140;2023-10-19T12:41:15;10.80;;;7.60;;
73575;SDS011;61859;49.204;8.140;2023-10-19T12:43:42;7.73;;;6.87;;
73575;SDS011;61859;49.204;8.140;2023-10-19T12:46:08;9.03;;;6.60;;
73575;SDS011;61859;49.204;8.140;2023-10-19T12:48:34;9.20;;;7.00;;
73575;SDS011;61859;49.204;8.140;2023-10-19T12:51:06;7.87;;;7.03;;
73575;SDS011;61859;49.204;8.140;2023-10-19T12:53:32;11.40;;;8.00;;
73575;SDS011;61859;49.204;8.140;2023-10-19T12:55:58;8.37;;;6.47;;
73575;SDS011;61859;49.204;8.140;2023-10-19T12:58:25;8.70;;;7.03;;
73575;SDS011;61859;49.204;8.140;2023-10-19T13:00:52;8.07;;;6.77;;
73575;SDS011;61859;49.204;8.140;2023-10-19T13:03:19;10.40;;;6.33;;
73575;SDS011;61859;49.204;8.140;2023-10-19T13:05:46;7.77;;;6.60;;
73575;SDS011;61859;49.204;8.140;2023-10-19T13:08:14;10.17;;;7.03;;
73575;SDS011;61859;49.204;8.140;2023-10-19T13:10:41;8.33;;;6.77;;
73575;SDS011;61859;49.204;8.140;2023-10-19T13:13:12;8.57;;;6.80;;
73575;SDS011;61859;49.204;8.140;2023-10-19T13:15:40;9.53;;;6.93;;
73575;SDS011;61859;49.204;8.140;2023-10-19T13:18:07;8.90;;;7.83;;
73575;SDS011;61859;49.204;8.140;2023-10-19T13:20:38;8.03;;;6.80;;
73575;SDS011;61859;49.204;8.140;2023-10-19T13:23:08;8.33;;;6.63;;
73575;SDS011;61859;49.204;8.140;2023-10-19T13:25:43;9.67;;;7.53;;
73575;SDS011;61859;49.204;8.140;2023-10-19T13:28:14;10.03;;;7.47;;
73575;SDS011;61859;49.204;8.140;2023-10-19T13:30:51;10.03;;;7.27;;
73575;SDS011;61859;49.204;8.140;2023-10-19T13:33:21;8.00;;;7.20;;
73575;SDS011;61859;49.204;8.140;2023-10-19T13:35:48;8.53;;;6.60;;
73575;SDS011;61859;49.204;8.140;2023-10-19T13:38:15;10.60;;;6.80;;
73575;SDS011;61859;49.204;8.140;2023-10-19T13:40:42;7.20;;;6.50;;
73575;SDS011;61859;49.204;8.140;2023-10-19T13:43:09;9.20;;;6.87;;
73575;SDS011;61859;49.204;8.140;2023-10-19T13:45:39;8.13;;;7.33;;
73575;SDS011;61859;49.204;8.140;2023-10-19T13:48:07;8.03;;;7.03;;
73575;SDS011;61859;49.204;8.140;2023-10-19T13:50:34;9.70;;;7.43;;
73575;SDS011;61859;49.204;8.140;2023-10-19T13:53:00;9.53;;;7.23;;
73575;SDS011;61859;49.204;8.140;2023-10-19T13:55:27;9.27;;;6.53;;
73575;SDS011;61859;49.204;8.140;2023-10-19T13:57:53;10.93;;;7.57;;
73575;SDS011;61859;49.204;8.140;2023-10-19T14:00:21;14.83;;;8.77;;
73575;SDS011;61859;49.204;8.140;2023-10-19T14:02:52;13.00;;;8.53;;
73575;SDS011;61859;49.204;8.140;2023-10-19T14:05:19;9.40;;;7.77;;
73575;SDS011;61859;49.204;8.140;2023-10-19T14:07:45;8.57;;;6.80;;
73575;SDS011;61859;49.204;8.140;2023-10-19T14:10:12;8.47;;;6.63;;
73575;SDS011;61859;49.204;8.140;2023-10-19T14:12:41;9.30;;;6.77;;
73575;SDS011;61859;49.204;8.140;2023-10-19T14:15:14;8.10;;;6.67;;
73575;SDS011;61859;49.204;8.140;2023-10-19T14:17:42;9.27;;;6.20;;
73575;SDS011;61859;49.204;8.140;2023-10-19T14:20:09;8.20;;;6.30;;
73575;SDS011;61859;49.204;8.140;2023-10-19T14:22:41;8.23;;;6.50;;
73575;SDS011;61859;49.204;8.140;2023-10-19T14:25:11;7.17;;;6.47;;
73575;SDS011;61859;49.204;8.140;2023-10-19T14:27:47;8.67;;;6.70;;
73575;SDS011;61859;49.204;8.140;2023-10-19T14:30:15;10.43;;;6.73;;
73575;SDS011;61859;49.204;8.140;2023-10-19T14:32:47;11.77;;;6.80;;
73575;SDS011;61859;49.204;8.140;2023-10-19T14:35:14;9.03;;;6.80;;
73575;SDS011;61859;49.204;8.140;2023-10-19T14:37:42;8.33;;;6.23;;
73575;SDS011;61859;49.204;8.140;2023-10-19T14:40:08;9.77;;;5.97;;
73575;SDS011;61859;49.204;8.140;2023-10-19T14:42:39;11.50;;;6.30;;
73575;SDS011;61859;49.204;8.140;2023-10-19T14:45:07;9.83;;;6.00;;
73575;SDS011;61859;49.204;8.140;2023-10-19T14:47:49;8.40;;;6.27;;
73575;SDS011;61859;49.204;8.140;2023-10-19T14:50:16;6.43;;;5.77;;
73575;SDS011;61859;49.204;8.140;2023-10-19T14:52:44;9.43;;;6.63;;
73575;SDS011;61859;49.204;8.140;2023-10-19T14:55:11;8.40;;;6.67;;
73575;SDS011;61859;49.204;8.140;2023-10-19T14:57:40;8.53;;;6.10;;
73575;SDS011;61859;49.204;8.140;2023-10-19T15:00:16;7.93;;;6.00;;
73575;SDS011;61859;49.204;8.140;2023-10-19T15:02:59;7.77;;;6.00;;
73575;SDS011;61859;49.204;8.140;2023-10-19T15:05:26;7.80;;;6.03;;
73575;SDS011;61859;49.204;8.140;2023-10-19T15:07:53;7.60;;;6.17;;
73575;SDS011;61859;49.204;8.140;2023-10-19T15:10:24;9.80;;;6.03;;
73575;SDS011;61859;49.204;8.140;2023-10-19T15:12:50;9.40;;;6.57;;
73575;SDS011;61859;49.204;8.140;2023-10-19T15:15:16;9.30;;;5.93;;
73575;SDS011;61859;49.204;8.140;2023-10-19T15:17:43;9.37;;;5.87;;
73575;SDS011;61859;49.204;8.140;2023-10-19T15:20:09;7.50;;;5.97;;
73575;SDS011;61859;49.204;8.140;2023-10-19T15:22:39;8.27;;;6.47;;
73575;SDS011;61859;49.204;8.140;2023-10-19T15:25:06;8.90;;;6.23;;